Time;durP1;ratioP1;P1;durP2;ratioP2;P2;SDS_P1;SDS_P2;PMS_P1;PMS_P2;Temp;Humidity;BMP_temperature;BMP_pressure;BME280_temperature;BME280_humidity;BME280_pressure;Samples;Min_cycle;Max_cycle;Signal;HPM_P1;HPM_P2
2022/04/23 00:00:39;;;;;;;5.45;2.28;;;;;;;15.95;46.34;96328.91;6223341;22;20459;-85
2022/04/23 00:03:05;;;;;;;6.22;1.67;;;;;;;15.86;46.40;96321.78;6198309;22;20089;-84
2022/04/23 00:05:31;;;;;;;3.20;1.90;;;;;;;15.69;47.05;96321.63;6223141;22;19999;-84
2022/04/23 00:08:42;;;;;;;4.50;2.03;;;;;;;15.71;47.09;96338.53;6222770;22;20004;-85
2022/04/23 00:18:16;;;;;;;7.53;2.28;;;;;;;16.01;45.91;96322.88;6065481;23;20047;-85
2022/04/23 00:27:35;;;;;;;8.25;2.42;;;;;;;15.88;46.04;96308.97;6065267;23;20010;-85
2022/04/23 00:30:02;;;;;;;3.90;1.98;;;;;;;15.76;46.29;96300.28;6064302;23;20011;-84
2022/04/23 00:32:27;;;;;;;8.35;2.50;;;;;;;15.79;46.20;96315.31;6148673;23;20001;-85
2022/04/23 00:34:53;;;;;;;4.18;1.88;;;;;;;15.66;46.73;96321.94;6201837;22;20011;-85
2022/04/23 00:37:19;;;;;;;7.47;1.88;;;;;;;15.73;46.71;96341.91;6222616;22;20067;-85
2022/04/23 00:39:53;;;;;;;4.88;2.30;;;;;;;15.64;47.00;96356.31;6222719;22;20063;-85
2022/04/23 00:42:19;;;;;;;3.20;2.10;;;;;;;15.55;47.37;96367.19;6223158;22;20065;-85
2022/04/23 00:44:44;;;;;;;14.23;2.55;;;;;;;15.43;48.05;96361.16;6223650;22;20016;-85
2022/04/23 00:47:10;;;;;;;4.15;2.30;;;;;;;15.32;49.27;96371.31;6223056;22;20007;-85
2022/04/23 00:49:47;;;;;;;13.57;2.17;;;;;;;15.22;49.78;96370.53;6247976;22;19999;-85
2022/04/23 00:52:32;;;;;;;7.95;3.22;;;;;;;14.74;51.31;96357.34;6222585;22;20038;-85
2022/04/23 00:54:59;;;;;;;5.88;2.75;;;;;;;14.51;51.66;96375.72;6223869;22;20019;-85
2022/04/23 00:57:25;;;;;;;6.07;3.08;;;;;;;14.40;52.68;96398.28;6222486;22;20034;-85
2022/04/23 00:59:51;;;;;;;7.35;2.97;;;;;;;14.27;53.98;96400.41;6222458;22;20014;-85
2022/04/23 01:02:22;;;;;;;13.02;3.20;;;;;;;14.07;54.21;96406.81;6222535;22;20412;-85
2022/04/23 01:04:48;;;;;;;6.43;2.92;;;;;;;14.16;54.06;96405.94;6223077;22;20158;-84
2022/04/23 01:07:20;;;;;;;9.43;2.75;;;;;;;14.04;53.73;96382.91;6222691;22;20462;-85
2022/04/23 01:09:47;;;;;;;7.75;3.03;;;;;;;13.97;54.71;96398.78;6222993;22;20029;-85
2022/04/23 01:12:13;;;;;;;7.45;2.53;;;;;;;13.90;55.50;96426.38;6223312;22;20000;-87
2022/04/23 01:15:01;;;;;;;8.38;3.08;;;;;;;13.85;54.49;96425.94;6222963;22;20011;-86
2022/04/23 01:17:27;;;;;;;17.80;3.10;;;;;;;13.84;55.25;96424.28;6222839;22;20007;-85
2022/04/23 01:19:53;;;;;;;5.72;2.85;;;;;;;13.88;56.44;96452.53;6222489;22;20007;-85
2022/04/23 01:22:18;;;;;;;9.25;3.10;;;;;;;13.68;57.01;96435.59;6247759;22;20000;-85
2022/04/23 01:24:44;;;;;;;6.78;3.10;;;;;;;13.42;57.46;96437.97;6222305;22;20083;-84
2022/04/23 01:27:13;;;;;;;8.90;3.10;;;;;;;13.32;58.66;96455.88;6222983;22;20071;-86
2022/04/23 01:29:39;;;;;;;8.25;3.40;;;;;;;13.24;58.88;96457.56;6223647;22;20007;-85
2022/04/23 01:32:05;;;;;;;7.35;3.30;;;;;;;13.06;59.22;96441.25;6222727;22;20474;-85
2022/04/23 01:34:31;;;;;;;7.60;3.30;;;;;;;12.87;61.63;96443.88;6222683;22;20073;-85
2022/04/23 01:36:57;;;;;;;9.50;3.65;;;;;;;12.79;62.36;96463.34;6222366;22;20337;-84
2022/04/23 01:39:22;;;;;;;10.15;3.55;;;;;;;12.65;62.42;96457.47;6222464;22;19999;-85
2022/04/23 01:41:48;;;;;;;12.30;4.00;;;;;;;12.63;62.73;96459.47;6222693;22;20456;-84
2022/04/23 01:44:14;;;;;;;6.80;3.33;;;;;;;12.63;62.70;96478.25;6222442;22;20011;-86
2022/04/23 01:46:40;;;;;;;7.88;3.33;;;;;;;12.58;63.36;96473.25;6224400;22;20080;-85
2022/04/23 01:49:06;;;;;;;8.90;3.40;;;;;;;12.53;63.60;96472.81;6224783;22;20390;-85
2022/04/23 01:51:31;;;;;;;8.65;3.85;;;;;;;12.54;63.80;96473.66;6224343;22;21018;-85
2022/04/23 01:53:57;;;;;;;8.55;3.50;;;;;;;12.57;63.96;96468.03;6224367;22;20095;-85
2022/04/23 01:56:22;;;;;;;6.45;3.33;;;;;;;12.62;63.91;96469.34;6224308;22;20083;-85
2022/04/23 01:58:48;;;;;;;8.60;3.10;;;;;;;12.66;63.77;96480.66;6224550;22;20010;-85
2022/04/23 02:01:14;;;;;;;8.15;3.03;;;;;;;12.46;64.62;96483.22;6224146;22;20010;-85
2022/04/23 02:03:39;;;;;;;10.13;3.25;;;;;;;12.37;65.61;96491.22;6223753;22;20030;-85
2022/04/23 02:06:05;;;;;;;5.25;3.22;;;;;;;12.15;66.74;96467.25;6224135;22;20004;-84
2022/04/23 02:08:31;;;;;;;7.70;3.35;;;;;;;12.18;67.35;96473.16;6223783;22;20008;-86
2022/04/23 02:10:56;;;;;;;9.55;3.35;;;;;;;12.20;66.76;96476.59;6223931;22;20003;-84
2022/04/23 02:13:22;;;;;;;4.05;2.78;;;;;;;12.18;67.11;96477.72;6249445;22;20003;-84
2022/04/23 02:15:48;;;;;;;9.80;3.20;;;;;;;12.21;67.22;96482.81;6224091;22;20079;-84
2022/04/23 02:18:16;;;;;;;10.63;4.10;;;;;;;12.04;67.71;96472.66;6224028;22;20083;-83
2022/04/23 02:21:33;;;;;;;8.25;3.08;;;;;;;11.82;68.93;96450.34;6224003;22;20031;-84
2022/04/23 02:24:03;;;;;;;7.05;3.15;;;;;;;11.92;69.79;96474.53;6268016;22;20119;-84
2022/04/23 02:26:29;;;;;;;7.82;3.38;;;;;;;11.93;69.73;96489.66;6224046;22;20011;-85
2022/04/23 02:28:55;;;;;;;7.32;3.28;;;;;;;11.75;70.67;96477.81;6223517;22;20156;-85
2022/04/23 02:31:20;;;;;;;11.43;3.78;;;;;;;11.75;70.18;96469.78;6248532;22;20061;-85
2022/04/23 02:33:46;;;;;;;9.57;3.78;;;;;;;11.80;70.93;96471.09;6223304;22;20098;-85
2022/04/23 02:36:15;;;;;;;6.25;3.63;;;;;;;11.80;70.08;96479.13;6222896;22;20011;-85
2022/04/23 02:38:41;;;;;;;10.25;4.10;;;;;;;11.79;70.65;96481.91;6224508;22;20399;-85
2022/04/23 02:41:10;;;;;;;12.27;4.57;;;;;;;11.79;71.27;96474.72;6248947;22;20065;-85
2022/04/23 02:43:38;;;;;;;6.85;3.03;;;;;;;11.76;70.85;96477.66;6223290;22;20007;-85
2022/04/23 02:46:05;;;;;;;6.38;3.38;;;;;;;11.78;72.18;96480.22;6223755;22;20004;-85
2022/04/23 02:48:30;;;;;;;8.40;3.80;;;;;;;11.64;71.31;96451.03;6222663;22;20031;-85
2022/04/23 02:50:56;;;;;;;10.27;3.33;;;;;;;11.82;71.84;96477.16;6222609;22;20516;-85
2022/04/23 02:53:21;;;;;;;5.05;3.33;;;;;;;11.93;71.70;96485.13;6223580;22;19999;-76
2022/04/23 02:55:47;;;;;;;9.05;2.72;;;;;;;11.94;71.74;96480.63;6222636;22;20045;-87
2022/04/23 02:58:13;;;;;;;11.65;2.80;;;;;;;11.99;71.36;96483.78;6223287;22;20011;-86
2022/04/23 03:00:41;;;;;;;14.07;4.40;;;;;;;11.98;71.96;96483.91;6222966;22;20038;-86
2022/04/23 03:03:07;;;;;;;8.75;3.80;;;;;;;11.87;72.62;96482.13;6223272;22;20011;-86
2022/04/23 03:05:33;;;;;;;8.55;3.75;;;;;;;11.88;73.12;96494.53;6222776;22;20007;-86
2022/04/23 03:08:00;;;;;;;9.50;3.67;;;;;;;11.79;74.44;96493.47;6222814;22;20010;-85
2022/04/23 03:10:30;;;;;;;8.93;3.78;;;;;;;11.62;75.77;96498.50;6223333;22;20506;-86
2022/04/23 03:12:57;;;;;;;10.43;3.95;;;;;;;11.37;77.29;96497.00;6248916;22;20018;-86
2022/04/23 03:15:25;;;;;;;6.55;3.95;;;;;;;11.37;77.08;96494.34;6223247;22;20007;-86
2022/04/23 03:18:03;;;;;;;10.60;3.80;;;;;;;11.36;77.68;96480.09;6223415;22;20065;-86
2022/04/23 03:20:28;;;;;;;7.85;3.70;;;;;;;11.36;78.62;96482.78;6222607;22;20011;-86
2022/04/23 03:22:54;;;;;;;19.33;3.92;;;;;;;11.26;79.53;96488.97;6222395;22;20347;-86
2022/04/23 03:25:20;;;;;;;11.55;4.15;;;;;;;11.14;81.09;96480.13;6222909;22;20000;-85
2022/04/23 03:27:45;;;;;;;14.60;3.90;;;;;;;11.18;81.82;96486.94;6222772;22;20056;-85
2022/04/23 03:30:11;;;;;;;16.20;4.22;;;;;;;11.16;82.17;96488.91;6222866;22;20011;-84
2022/04/23 03:32:37;;;;;;;12.23;4.75;;;;;;;11.15;81.54;96470.28;6222713;22;20412;-84
2022/04/23 03:35:05;;;;;;;15.05;4.45;;;;;;;11.21;82.17;96481.34;6228299;22;20064;-84
2022/04/23 03:37:31;;;;;;;12.43;4.53;;;;;;;11.29;82.38;96494.94;6226346;22;20060;-85
2022/04/23 03:39:57;;;;;;;15.75;4.47;;;;;;;11.28;81.93;96487.91;6222619;22;20038;-85
2022/04/23 03:42:22;;;;;;;7.95;4.60;;;;;;;11.45;81.91;96491.88;6222554;22;20004;-85
2022/04/23 03:44:48;;;;;;;12.02;5.20;;;;;;;11.54;81.85;96503.63;6247918;22;20141;-85
2022/04/23 03:47:15;;;;;;;8.80;4.80;;;;;;;11.54;81.75;96499.13;6222926;22;20041;-85
2022/04/23 03:49:41;;;;;;;10.80;5.10;;;;;;;11.63;81.70;96503.72;6223513;22;20004;-87
2022/04/23 03:52:10;;;;;;;12.98;5.10;;;;;;;11.69;81.62;96507.75;6222474;22;20347;-85
2022/04/23 03:54:36;;;;;;;21.15;7.10;;;;;;;11.67;82.30;96515.03;6222813;22;20078;-85
2022/04/23 03:57:01;;;;;;;24.67;9.95;;;;;;;11.58;82.52;96505.94;6222415;22;20020;-85
2022/04/23 03:59:29;;;;;;;24.40;7.47;;;;;;;11.70;82.53;96512.16;6222857;22;20015;-85
2022/04/23 04:01:55;;;;;;;16.45;7.53;;;;;;;11.73;82.48;96509.22;6223011;22;20091;-86
2022/04/23 04:04:21;;;;;;;16.00;9.18;;;;;;;11.75;81.42;96512.63;6197390;22;20062;-85
2022/04/23 04:06:47;;;;;;;18.15;7.82;;;;;;;11.83;81.03;96515.50;6222901;22;20011;-84
2022/04/23 04:09:13;;;;;;;12.55;6.30;;;;;;;11.79;82.02;96528.31;6222357;22;20446;-85
2022/04/23 04:12:02;;;;;;;30.45;7.15;;;;;;;11.64;82.52;96494.72;6222672;22;20087;-87
2022/04/23 04:14:34;;;;;;;17.08;5.85;;;;;;;11.73;82.11;96512.75;6226779;22;20557;-86
2022/04/23 04:17:07;;;;;;;16.92;5.82;;;;;;;11.84;82.85;96528.75;6223584;22;20008;-85
2022/04/23 04:19:34;;;;;;;13.00;6.18;;;;;;;11.77;83.31;96513.34;6248962;22;20412;-85
2022/04/23 04:22:02;;;;;;;15.88;8.23;;;;;;;11.74;82.97;96510.94;6223416;22;20086;-85
2022/04/23 04:24:28;;;;;;;9.35;6.03;;;;;;;11.72;83.89;96518.25;6222795;22;20464;-88
2022/04/23 04:26:53;;;;;;;18.15;9.90;;;;;;;11.68;84.76;96506.03;6223435;22;20066;-88
2022/04/23 04:29:19;;;;;;;19.02;10.70;;;;;;;11.61;85.56;96499.47;6221904;22;20007;-90
2022/04/23 04:31:49;;;;;;;18.92;11.95;;;;;;;11.75;85.02;96502.75;6222175;22;20000;-85
2022/04/23 04:34:23;;;;;;;20.48;10.27;;;;;;;11.87;84.20;96512.44;6222541;22;20004;-85
2022/04/23 04:36:49;;;;;;;42.35;18.05;;;;;;;12.02;84.21;96517.50;6221327;22;20081;-81
2022/04/23 04:39:16;;;;;;;185.40;72.60;;;;;;;12.27;82.32;96518.00;6221318;22;20004;-80
2022/04/23 04:41:42;;;;;;;62.60;29.58;;;;;;;12.39;80.52;96514.25;6221157;22;20003;-81
2022/04/23 04:44:08;;;;;;;21.80;13.38;;;;;;;12.41;80.21;96517.66;6220818;22;20399;-80
2022/04/23 04:46:35;;;;;;;51.97;26.00;;;;;;;12.48;80.38;96513.47;6221193;22;20057;-81
2022/04/23 04:49:04;;;;;;;18.95;10.80;;;;;;;12.55;80.35;96513.75;6221110;22;20091;-80
2022/04/23 04:51:31;;;;;;;20.92;11.27;;;;;;;12.71;78.81;96516.81;6221059;22;20332;-80
2022/04/23 04:53:56;;;;;;;14.95;7.05;;;;;;;12.74;79.60;96518.38;6221339;22;20011;-81
2022/04/23 04:56:23;;;;;;;14.18;6.60;;;;;;;12.66;80.99;96512.84;6220552;22;20090;-80
2022/04/23 04:58:48;;;;;;;12.20;5.28;;;;;;;12.47;82.18;96506.41;6220657;22;20003;-81
2022/04/23 05:01:14;;;;;;;8.02;4.38;;;;;;;12.49;82.69;96531.25;6246295;22;20029;-82
2022/04/23 05:03:46;;;;;;;10.40;4.63;;;;;;;12.47;83.80;96535.03;6221095;22;20008;-84
2022/04/23 05:06:12;;;;;;;12.35;5.97;;;;;;;12.39;83.90;96535.72;6222532;22;20011;-84
2022/04/23 05:08:38;;;;;;;16.92;6.55;;;;;;;12.46;82.33;96549.41;6222223;22;20007;-76
2022/04/23 05:11:04;;;;;;;15.52;6.25;;;;;;;12.44;81.97;96546.88;6222210;22;20010;-86
2022/04/23 05:13:30;;;;;;;20.58;8.57;;;;;;;12.64;79.85;96555.06;6247452;22;19999;-85
2022/04/23 05:15:56;;;;;;;19.13;9.55;;;;;;;12.75;78.18;96542.41;6224511;22;20065;-82
2022/04/23 05:18:23;;;;;;;36.40;12.88;;;;;;;13.49;75.86;96570.75;6219917;22;20377;-74
2022/04/23 05:20:48;;;;;;;27.88;11.35;;;;;;;14.15;71.54;96554.03;6223135;22;20041;-80
2022/04/23 05:23:14;;;;;;;30.00;13.90;;;;;;;14.84;68.23;96576.22;6224110;22;20015;-85
2022/04/23 05:25:40;;;;;;;39.83;15.10;;;;;;;15.26;65.99;96566.72;6251458;22;20015;-91
2022/04/23 05:28:05;;;;;;;26.70;12.98;;;;;;;15.93;62.56;96554.78;6226303;22;20007;-86
2022/04/23 05:30:31;;;;;;;31.70;10.68;;;;;;;16.26;61.06;96562.19;6226116;22;20004;-86
2022/04/23 05:32:56;;;;;;;34.53;12.30;;;;;;;16.10;60.74;96584.47;6226733;22;20016;-85
2022/04/23 05:35:22;;;;;;;18.83;10.70;;;;;;;15.64;62.36;96590.84;6225424;22;20415;-87
2022/04/23 05:37:48;;;;;;;16.70;8.57;;;;;;;15.59;62.58;96590.47;6226205;22;20014;-87
2022/04/23 05:40:13;;;;;;;17.92;8.20;;;;;;;15.69;62.70;96596.63;6225276;22;20006;-84
2022/04/23 05:42:39;;;;;;;14.32;7.55;;;;;;;16.64;60.05;96588.88;6225626;22;20004;-85
2022/04/23 05:45:05;;;;;;;15.43;8.23;;;;;;;17.05;57.81;96600.00;6226241;22;20090;-88
2022/04/23 05:47:31;;;;;;;18.40;8.65;;;;;;;17.23;57.10;96611.63;6250974;22;20038;-84
2022/04/23 05:49:56;;;;;;;20.33;8.00;;;;;;;16.85;58.95;96615.59;6254456;22;20440;-85
2022/04/23 05:52:22;;;;;;;15.15;6.43;;;;;;;16.55;61.20;96616.00;6226123;22;20010;-85
2022/04/23 05:54:48;;;;;;;20.92;6.30;;;;;;;16.23;63.29;96628.13;6225603;22;20406;-85
2022/04/23 05:57:14;;;;;;;16.05;6.15;;;;;;;16.01;63.70;96623.16;6225931;22;20436;-86
2022/04/23 05:59:41;;;;;;;16.75;8.30;;;;;;;15.71;64.35;96616.22;6225445;22;20003;-84
2022/04/23 06:02:07;;;;;;;8.98;5.35;;;;;;;15.84;64.51;96617.72;6226131;22;20444;-84
2022/04/23 06:04:33;;;;;;;15.35;6.47;;;;;;;15.98;64.08;96622.59;6227441;22;20416;-84
2022/04/23 06:06:59;;;;;;;14.77;6.13;;;;;;;15.91;64.14;96629.59;6225833;22;20007;-85
2022/04/23 06:09:24;;;;;;;14.57;6.18;;;;;;;15.63;65.25;96618.78;6228573;22;20455;-86
2022/04/23 06:12:18;;;;;;;8.38;5.40;;;;;;;16.11;63.24;96623.94;6229320;22;20000;-86
2022/04/23 06:14:45;;;;;;;12.30;5.18;;;;;;;15.86;63.78;96602.22;6196964;22;20001;-84
2022/04/23 06:17:12;;;;;;;8.60;4.93;;;;;;;15.97;62.95;96607.41;6228019;22;20008;-86
2022/04/23 06:19:39;;;;;;;9.15;4.85;;;;;;;16.23;62.19;96633.53;6252348;22;20088;-86
2022/04/23 06:22:05;;;;;;;13.25;6.82;;;;;;;16.60;61.63;96625.31;6227836;22;20007;-88
2022/04/23 06:24:31;;;;;;;11.70;4.90;;;;;;;16.83;59.40;96622.97;6225532;22;20099;-87
2022/04/23 06:26:58;;;;;;;18.20;5.93;;;;;;;16.98;58.16;96616.00;6226013;22;20003;-88
2022/04/23 06:29:29;;;;;;;17.75;7.53;;;;;;;17.14;57.87;96615.28;6229578;22;20018;-90
2022/04/23 06:31:55;;;;;;;13.05;6.40;;;;;;;17.70;56.54;96610.25;6227015;22;20004;-81
2022/04/23 06:34:20;;;;;;;9.70;5.97;;;;;;;17.63;56.10;96614.59;6222390;22;20340;-75
2022/04/23 06:36:46;;;;;;;11.73;7.00;;;;;;;17.35;59.00;96618.47;6273872;22;20012;-82
2022/04/23 06:39:12;;;;;;;16.92;7.75;;;;;;;17.59;57.61;96613.25;6249170;22;20046;-78
2022/04/23 06:41:37;;;;;;;15.43;7.15;;;;;;;17.74;56.92;96602.66;6246535;22;20754;-85
2022/04/23 06:44:03;;;;;;;15.45;7.00;;;;;;;18.04;56.53;96593.13;6224282;22;20003;-77
2022/04/23 06:46:29;;;;;;;11.65;6.75;;;;;;;19.47;53.32;96576.31;6224610;22;19999;-90
2022/04/23 06:48:54;;;;;;;14.80;6.47;;;;;;;20.30;50.50;96571.22;6222612;22;20004;-79
2022/04/23 06:51:20;;;;;;;10.68;5.70;;;;;;;21.51;48.55;96570.22;6222171;22;19999;-78
2022/04/23 06:53:46;;;;;;;12.48;5.45;;;;;;;22.49;45.65;96541.53;6222478;22;20039;-80
2022/04/23 06:56:11;;;;;;;12.52;5.18;;;;;;;22.73;44.60;96536.81;6225106;22;20011;-87
2022/04/23 06:58:37;;;;;;;22.88;12.27;;;;;;;22.01;46.42;96554.00;6248920;22;20086;-86
2022/04/23 07:01:03;;;;;;;18.35;6.45;;;;;;;20.99;48.88;96552.00;6224591;22;20019;-86
2022/04/23 07:03:29;;;;;;;20.35;6.43;;;;;;;20.18;50.72;96559.03;6223067;22;20023;-86
2022/04/23 07:05:55;;;;;;;15.90;6.18;;;;;;;21.26;49.11;96561.47;6248673;22;20332;-84
2022/04/23 07:08:20;;;;;;;13.85;5.85;;;;;;;22.98;45.47;96570.81;6220436;22;19999;-75
2022/04/23 07:10:46;;;;;;;16.75;6.78;;;;;;;24.32;42.75;96559.56;6221480;22;20030;-74
2022/04/23 07:13:14;;;;;;;15.77;6.53;;;;;;;25.75;39.87;96552.56;6245969;22;20007;-76
2022/04/23 07:15:39;;;;;;;17.73;6.93;;;;;;;26.99;37.86;96540.25;6245928;22;20011;-74
2022/04/23 07:18:06;;;;;;;14.43;6.18;;;;;;;28.67;35.45;96536.25;6245075;22;20084;-76
2022/04/23 07:20:32;;;;;;;12.70;6.63;;;;;;;29.73;32.86;96525.22;6219541;22;20010;-79
2022/04/23 07:25:42;;;;;;;16.30;5.88;;;;;;;28.13;33.58;96543.47;6272016;22;20011;-73
2022/04/23 07:28:07;;;;;;;10.27;4.63;;;;;;;29.32;32.00;96534.41;6219332;22;20007;-76
2022/04/23 07:30:34;;;;;;;11.32;6.25;;;;;;;30.53;30.38;96538.13;6219762;22;20008;-75
2022/04/23 07:32:59;;;;;;;12.15;4.70;;;;;;;31.77;27.94;96527.97;6219185;22;20351;-75
2022/04/23 07:38:19;;;;;;;19.42;6.70;;;;;;;31.34;28.52;96547.97;6248691;22;20046;-79
2022/04/23 07:40:49;;;;;;;9.38;4.88;;;;;;;28.82;31.12;96548.53;6219296;22;20011;-80
2022/04/23 07:43:15;;;;;;;7.60;4.18;;;;;;;26.36;34.95;96559.34;6244319;22;20090;-76
2022/04/23 07:45:45;;;;;;;7.78;3.45;;;;;;;28.02;32.62;96555.19;6219322;22;20094;-73
2022/04/23 07:48:12;;;;;;;11.23;3.80;;;;;;;29.72;30.69;96549.19;6244214;22;20003;-76
2022/04/23 07:50:40;;;;;;;7.28;3.88;;;;;;;27.97;32.72;96560.53;6244661;22;20018;-76
2022/04/23 07:53:11;;;;;;;10.43;4.15;;;;;;;26.98;34.04;96566.00;6244219;22;20451;-76
2022/04/23 07:55:38;;;;;;;8.52;3.20;;;;;;;27.40;33.42;96573.53;6219511;22;20039;-75
2022/04/23 07:58:05;;;;;;;9.43;3.95;;;;;;;26.96;34.40;96581.88;6218989;22;20420;-75
2022/04/23 08:00:31;;;;;;;15.13;4.35;;;;;;;26.52;35.45;96590.13;6218632;22;20364;-77
2022/04/23 08:02:58;;;;;;;14.70;3.33;;;;;;;25.18;37.14;96595.16;6219049;22;20010;-83
2022/04/23 08:05:23;;;;;;;10.00;3.83;;;;;;;23.86;39.22;96598.41;6218850;22;20402;-82
2022/04/23 08:07:49;;;;;;;8.68;3.67;;;;;;;23.29;40.00;96609.47;6218918;22;20000;-85
2022/04/23 08:10:15;;;;;;;7.03;3.40;;;;;;;24.32;38.05;96592.34;6219070;22;20011;-82
2022/04/23 08:12:40;;;;;;;9.95;3.88;;;;;;;23.73;38.96;96601.03;6219483;22;20392;-86
2022/04/23 08:15:07;;;;;;;8.65;3.50;;;;;;;22.42;40.87;96591.59;6220029;22;20007;-75
2022/04/23 08:17:33;;;;;;;16.13;4.50;;;;;;;21.61;43.58;96617.06;6219041;22;20387;-81
2022/04/23 08:19:59;;;;;;;15.23;4.38;;;;;;;21.30;45.22;96622.63;6219883;22;20178;-80
2022/04/23 08:22:25;;;;;;;11.98;5.60;;;;;;;20.71;46.54;96616.13;6219429;22;20036;-79
2022/04/23 08:24:50;;;;;;;18.17;4.03;;;;;;;21.00;45.91;96638.00;6219666;22;20015;-80
2022/04/23 08:27:16;;;;;;;13.20;3.13;;;;;;;21.06;46.10;96637.28;6218981;22;20443;-77
2022/04/23 08:32:25;;;;;;;13.75;4.10;;;;;;;20.94;47.67;96668.63;6249253;22;20015;-76
2022/04/23 08:34:53;;;;;;;17.25;5.35;;;;;;;20.75;48.97;96671.81;6244770;22;20008;-84
2022/04/23 08:37:18;;;;;;;12.35;5.50;;;;;;;20.56;49.25;96650.53;6245211;22;20436;-76
2022/04/23 08:39:46;;;;;;;11.43;4.30;;;;;;;20.39;50.25;96646.22;6218964;22;20090;-80
2022/04/23 08:42:11;;;;;;;9.48;4.80;;;;;;;20.59;50.94;96673.78;6271540;22;20000;-81
2022/04/23 08:44:40;;;;;;;16.85;5.75;;;;;;;21.00;50.88;96680.66;6220131;22;20212;-84
2022/04/23 08:47:09;;;;;;;12.63;4.20;;;;;;;22.16;48.65;96657.47;6221020;22;20022;-81
2022/04/23 08:49:38;;;;;;;10.77;4.93;;;;;;;22.89;46.85;96654.66;6220590;22;20015;-79
2022/04/23 08:52:18;;;;;;;12.48;4.35;;;;;;;23.28;45.74;96665.13;6220371;22;20501;-75
2022/04/23 08:54:45;;;;;;;10.05;4.22;;;;;;;22.83;46.54;96663.59;6245148;22;20027;-79
2022/04/23 08:57:13;;;;;;;8.35;4.85;;;;;;;22.43;47.12;96658.66;6219699;22;20008;-76
2022/04/23 08:59:39;;;;;;;19.95;4.38;;;;;;;21.83;48.28;96659.72;6219419;22;20018;-79
2022/04/23 09:02:13;;;;;;;14.45;5.40;;;;;;;21.33;49.28;96645.91;6219681;22;20008;-81
2022/04/23 09:04:42;;;;;;;9.60;5.18;;;;;;;21.04;49.36;96644.75;6220399;22;20050;-80
2022/04/23 09:07:21;;;;;;;12.30;5.05;;;;;;;21.13;49.55;96674.66;6220319;22;20014;-78
2022/04/23 09:09:54;;;;;;;13.88;4.40;;;;;;;20.82;48.98;96636.59;6245029;22;20003;-79
2022/04/23 09:12:22;;;;;;;7.88;4.20;;;;;;;21.23;48.62;96658.91;6219307;22;20014;-78
2022/04/23 09:14:49;;;;;;;14.65;4.35;;;;;;;21.05;48.37;96651.03;6219656;22;20441;-80
2022/04/23 09:25:42;;;;;;;8.70;3.40;;;;;;;22.44;46.16;96644.00;6249146;22;20044;-75
2022/04/23 09:28:26;;;;;;;10.30;3.30;;;;;;;22.78;44.86;96657.03;6246334;22;20029;-74
2022/04/23 09:30:54;;;;;;;7.25;2.80;;;;;;;22.44;44.75;96638.56;6221502;22;20070;-75
2022/04/23 09:33:29;;;;;;;11.40;3.53;;;;;;;22.62;44.23;96647.16;6220725;22;20400;-75
2022/04/23 09:36:03;;;;;;;9.93;3.20;;;;;;;22.61;44.18;96640.88;6222701;22;20012;-75
2022/04/23 09:38:30;;;;;;;10.55;2.53;;;;;;;22.67;44.20;96636.59;6220685;22;20427;-76
2022/04/23 09:41:15;;;;;;;11.73;2.95;;;;;;;22.64;44.26;96642.38;6220350;22;20010;-75
2022/04/23 09:43:41;;;;;;;9.77;2.65;;;;;;;22.47;43.83;96635.47;6223673;22;20092;-74
2022/04/23 09:46:08;;;;;;;16.75;3.28;;;;;;;22.63;43.93;96643.41;6246157;22;20007;-84
2022/04/23 09:48:36;;;;;;;9.45;2.95;;;;;;;22.80;43.65;96639.44;6218810;22;20090;-83
2022/04/23 09:51:02;;;;;;;32.72;11.80;;;;;;;22.86;43.72;96641.38;6246160;22;20078;-84
2022/04/23 09:53:28;;;;;;;10.45;2.83;;;;;;;23.34;41.57;96631.59;6219277;22;20094;-85
2022/04/23 09:56:02;;;;;;;10.10;2.70;;;;;;;24.21;40.12;96624.69;6244776;22;20079;-82
2022/04/23 09:58:31;;;;;;;7.75;2.53;;;;;;;24.74;39.21;96603.03;6220846;22;20004;-76
2022/04/23 10:00:57;;;;;;;10.77;2.78;;;;;;;24.53;39.03;96617.69;6220940;22;20069;-76
2022/04/23 10:03:44;;;;;;;10.10;2.60;;;;;;;23.97;39.40;96608.75;6220655;22;20014;-74
2022/04/23 10:06:14;;;;;;;10.07;2.75;;;;;;;23.69;39.75;96608.78;6247012;22;20325;-75
2022/04/23 10:08:44;;;;;;;7.32;2.35;;;;;;;23.25;40.60;96605.47;6224404;22;20004;-78
2022/04/23 10:11:25;;;;;;;7.47;2.40;;;;;;;22.99;41.50;96619.72;6221569;22;20337;-74
2022/04/23 10:13:57;;;;;;;13.93;2.67;;;;;;;22.62;42.22;96615.31;6247309;22;20444;-75
2022/04/23 10:16:23;;;;;;;8.38;2.55;;;;;;;22.73;41.63;96624.06;6247833;22;20003;-75
2022/04/23 10:18:49;;;;;;;9.07;2.67;;;;;;;22.63;42.70;96621.59;6247592;22;19999;-75
2022/04/23 10:21:34;;;;;;;8.50;2.90;;;;;;;22.72;42.35;96631.38;6248202;22;20027;-76
2022/04/23 10:24:22;;;;;;;10.05;2.67;;;;;;;22.72;42.56;96630.53;6247435;22;20011;-83
2022/04/23 10:26:54;;;;;;;25.02;3.45;;;;;;;23.22;41.75;96623.06;6245616;22;20406;-75
2022/04/23 10:29:21;;;;;;;12.82;3.35;;;;;;;23.57;41.14;96613.09;6226946;22;20011;-81
2022/04/23 10:32:24;;;;;;;9.52;2.92;;;;;;;24.21;40.34;96613.75;6229082;22;20067;-84
2022/04/23 10:34:50;;;;;;;14.57;2.88;;;;;;;24.28;39.73;96605.59;6257219;22;20012;-85
2022/04/23 10:37:17;;;;;;;7.93;2.90;;;;;;;24.94;38.70;96603.09;6223947;22;20331;-79
2022/04/23 10:39:51;;;;;;;6.95;3.28;;;;;;;27.74;34.44;96593.34;6248668;22;20007;-78
2022/04/23 10:42:24;;;;;;;10.15;3.47;;;;;;;31.20;29.88;96574.25;6248188;22;20007;-79
2022/04/23 10:44:51;;;;;;;9.38;2.85;;;;;;;31.94;27.85;96542.59;6247923;22;20064;-81
2022/04/23 10:47:30;;;;;;;11.32;2.97;;;;;;;33.19;26.49;96552.88;6223441;22;20000;-77
2022/04/23 10:52:43;;;;;;;8.75;3.03;;;;;;;32.27;27.30;96547.25;6275933;22;20012;-82
2022/04/23 10:55:09;;;;;;;14.32;2.70;;;;;;;30.92;28.44;96555.72;6223282;22;20443;-78
2022/04/23 10:57:35;;;;;;;20.45;3.50;;;;;;;29.82;29.91;96559.66;6249512;22;20011;-85
2022/04/23 11:00:21;;;;;;;10.50;2.92;;;;;;;28.79;30.89;96561.91;6223056;22;20012;-85
2022/04/23 11:02:57;;;;;;;11.93;3.08;;;;;;;27.94;31.50;96569.22;6224148;22;20000;-90
2022/04/23 11:13:58;;;;;;;11.00;2.92;;;;;;;28.56;32.96;96573.63;6253024;22;20411;-77
2022/04/23 11:16:28;;;;;;;11.95;3.78;;;;;;;27.62;33.30;96568.50;6222925;22;20007;-78
2022/04/23 11:18:55;;;;;;;12.32;3.25;;;;;;;26.81;34.33;96582.19;6222996;22;20000;-77
2022/04/23 11:21:29;;;;;;;15.38;4.60;;;;;;;26.08;35.45;96586.25;6222430;22;20042;-77
2022/04/23 11:23:59;;;;;;;9.15;2.58;;;;;;;25.78;35.60;96593.25;6222843;22;20023;-76
2022/04/23 11:26:40;;;;;;;20.42;3.40;;;;;;;26.54;35.12;96602.56;6223349;22;20093;-76
2022/04/23 11:29:06;;;;;;;12.00;2.80;;;;;;;26.62;34.16;96588.59;6248229;22;20344;-77
2022/04/23 11:31:31;;;;;;;10.48;2.70;;;;;;;26.42;34.71;96596.88;6222541;22;20012;-76
2022/04/23 11:34:01;;;;;;;13.77;2.85;;;;;;;25.94;36.05;96600.16;6247898;22;20000;-76
2022/04/23 11:36:34;;;;;;;9.20;3.08;;;;;;;26.64;36.96;96618.56;6247569;22;19999;-78
2022/04/23 11:39:03;;;;;;;12.77;3.40;;;;;;;26.81;35.53;96614.28;6221793;22;19999;-76
2022/04/23 11:41:32;;;;;;;13.70;3.83;;;;;;;27.13;36.84;96606.91;6221080;22;20385;-76
2022/04/23 11:43:58;;;;;;;5.75;2.40;;;;;;;27.23;34.99;96594.34;6246665;22;20268;-76
2022/04/23 11:46:24;;;;;;;11.65;2.03;;;;;;;26.73;36.11;96596.13;6219812;22;20011;-76
2022/04/23 11:48:51;;;;;;;6.72;3.20;;;;;;;26.57;36.12;96596.63;6245399;22;20037;-76
2022/04/23 11:51:19;;;;;;;11.35;2.50;;;;;;;26.37;35.37;96585.75;6219517;22;20011;-77
2022/04/23 11:54:00;;;;;;;7.15;2.35;;;;;;;26.24;34.62;96591.25;6219345;22;20015;-77
2022/04/23 11:56:32;;;;;;;10.63;2.25;;;;;;;25.80;35.08;96582.94;6220778;22;20004;-76
2022/04/23 11:59:03;;;;;;;7.68;2.33;;;;;;;26.33;34.40;96581.72;6219541;22;20038;-77
2022/04/23 12:01:29;;;;;;;8.88;2.50;;;;;;;26.82;35.25;96577.53;6219289;22;20016;-76
2022/04/23 12:03:56;;;;;;;10.35;2.47;;;;;;;27.42;32.74;96585.16;6244658;22;20004;-76
2022/04/23 12:06:22;;;;;;;6.43;2.47;;;;;;;29.47;30.18;96573.41;6244959;22;20061;-77
2022/04/23 12:08:48;;;;;;;5.85;1.80;;;;;;;28.80;29.55;96552.56;6219721;22;20035;-76
2022/04/23 12:11:29;;;;;;;5.57;2.35;;;;;;;31.55;27.12;96566.63;6219530;22;20038;-77
2022/04/23 12:13:55;;;;;;;5.78;2.10;;;;;;;29.51;28.64;96547.88;6219802;22;20444;-74